Search for airport 
image banner adimage banner adimage banner ad
image banner ad

CA00 - Platform Hermosa

Located in Santa Maria, United States

ICAO - CA00, IATA -

Data provided by Airmate  

General information

Coordinates: N34°27'20" W120°38'52"
Elevation is 152 feet MSL.
Magnetic variation is 14° East
View others Airports in California

Operational data

Special qualification required
Current time UTC:
Current local time:
Weather at : KLPC - Lompoc ( 29 km )
METAR: KLPC 210856Z AUTO 28003KT 10SM OVC006 13/12 A2993 RMK AO2 SLP138 T01330122 55000
View NOTAMs / SUP AIP / TFR affecting this airport [VIEW]
Communications frequencies: [VIEW]

Runways:

Airport contact information

Address: Santa Maria United States

Satellite view of CA00